Time;durP1;ratioP1;P1;durP2;ratioP2;P2;SDS_P1;SDS_P2;PMS_P1;PMS_P2;Temp;Humidity;BMP_temperature;BMP_pressure;BME280_temperature;BME280_humidity;BME280_pressure;Samples;Min_cycle;Max_cycle;Signal;HPM_P1;HPM_P2
2022/05/25 00:01:12;;;;;;;2.70;0.90;;;17.60;99.90;;;;;;5007601;28;20775;-73
2022/05/25 00:03:38;;;;;;;1.20;1.00;;;17.50;99.90;;;;;;5007439;28;20187;-73
2022/05/25 00:06:07;;;;;;;1.03;0.90;;;17.40;99.90;;;;;;5007781;28;20208;-73
2022/05/25 00:08:33;;;;;;;1.43;1.00;;;17.40;99.90;;;;;;5006027;28;20814;-73
2022/05/25 00:10:59;;;;;;;1.47;0.83;;;17.40;99.90;;;;;;5006596;28;20449;-74
2022/05/25 00:13:25;;;;;;;0.90;0.80;;;17.40;99.90;;;;;;5007639;28;20799;-72
2022/05/25 00:15:51;;;;;;;2.17;0.90;;;17.50;99.90;;;;;;5006374;28;20457;-74
2022/05/25 00:18:17;;;;;;;0.97;0.87;;;17.60;99.90;;;;;;5007291;28;20278;-74
2022/05/25 00:20:43;;;;;;;1.63;0.70;;;17.70;99.90;;;;;;5007710;28;20417;-73
2022/05/25 00:23:09;;;;;;;1.00;0.70;;;17.70;99.90;;;;;;5007689;28;20417;-72
2022/05/25 00:25:37;;;;;;;1.20;1.00;;;17.80;99.90;;;;;;5006604;28;20939;-73
2022/05/25 00:28:06;;;;;;;0.87;0.80;;;17.80;99.90;;;;;;5006634;28;20745;-74
2022/05/25 00:30:32;;;;;;;1.00;0.77;;;17.80;99.90;;;;;;5004796;28;20430;-74
2022/05/25 00:32:58;;;;;;;2.60;1.03;;;17.80;99.90;;;;;;5007099;28;20414;-73
2022/05/25 00:35:27;;;;;;;0.80;0.70;;;17.80;99.90;;;;;;5007400;28;20490;-72
2022/05/25 00:37:52;;;;;;;1.90;0.90;;;17.70;99.90;;;;;;5007360;28;20461;-74
2022/05/25 00:40:25;;;;;;;1.13;0.70;;;17.70;99.90;;;;;;5004353;28;20419;-73
2022/05/25 00:42:51;;;;;;;0.80;0.70;;;17.70;99.90;;;;;;5006201;28;20178;-73
2022/05/25 00:45:17;;;;;;;1.10;0.90;;;17.80;99.90;;;;;;5006250;28;21171;-74
2022/05/25 00:47:46;;;;;;;1.53;1.00;;;17.70;99.90;;;;;;5006414;28;20755;-74
2022/05/25 00:50:15;;;;;;;0.87;0.80;;;17.60;99.90;;;;;;5004681;28;20217;-74
2022/05/25 00:52:43;;;;;;;1.23;0.80;;;17.40;99.90;;;;;;5004227;28;20923;-74
2022/05/25 00:55:13;;;;;;;0.90;0.70;;;17.20;99.90;;;;;;5006014;28;20454;-73
2022/05/25 00:57:41;;;;;;;1.53;0.80;;;17.10;99.90;;;;;;5005747;28;20458;-73
2022/05/25 01:03:32;;;;;;;1.73;0.77;;;17.10;99.90;;;;;;4997814;28;20406;-73
2022/05/25 01:06:12;;;;;;;2.93;1.10;;;17.10;99.90;;;;;;5006486;28;20422;-73
2022/05/25 01:08:54;;;;;;;1.53;1.00;;;17.10;99.90;;;;;;5005829;28;20450;-72
2022/05/25 01:11:47;;;;;;;2.57;1.30;;;17.10;99.90;;;;;;5006140;28;20404;-73
2022/05/25 01:14:49;;;;;;;1.50;0.70;;;17.10;99.90;;;;;;5005925;28;20863;-73
2022/05/25 01:17:27;;;;;;;1.13;0.97;;;17.20;99.90;;;;;;5006205;28;20520;-73
2022/05/25 01:20:06;;;;;;;1.07;0.97;;;17.20;99.90;;;;;;5003671;28;20491;-73
2022/05/25 01:22:57;;;;;;;2.00;1.00;;;17.30;99.90;;;;;;5005901;28;20411;-73
2022/05/25 01:26:00;;;;;;;1.70;0.97;;;17.20;99.90;;;;;;5005939;28;20447;-73
2022/05/25 01:28:36;;;;;;;1.17;1.00;;;17.20;99.90;;;;;;5003773;28;20824;-73
2022/05/25 01:31:09;;;;;;;1.37;1.00;;;17.30;99.90;;;;;;5006309;28;20405;-73
2022/05/25 01:33:45;;;;;;;0.90;0.70;;;17.10;99.90;;;;;;5005660;28;20779;-72
2022/05/25 01:36:27;;;;;;;1.30;0.70;;;17.20;99.90;;;;;;5007877;28;20436;-74
2022/05/25 01:39:09;;;;;;;1.00;0.70;;;17.20;99.90;;;;;;5005610;28;20492;-71
2022/05/25 01:41:59;;;;;;;2.03;0.90;;;17.20;99.90;;;;;;5005044;28;20406;-73
2022/05/25 01:44:31;;;;;;;1.27;0.80;;;17.20;99.90;;;;;;5005203;28;20422;-73
2022/05/25 01:47:03;;;;;;;2.40;0.80;;;17.20;99.90;;;;;;5005191;28;20470;-73
2022/05/25 01:49:35;;;;;;;2.40;0.97;;;17.20;99.90;;;;;;5005559;28;20427;-73
2022/05/25 01:52:05;;;;;;;0.90;0.70;;;17.20;99.90;;;;;;5005136;28;20414;-73
2022/05/25 01:54:50;;;;;;;1.00;0.90;;;17.30;99.90;;;;;;5004680;28;20541;-72
2022/05/25 01:57:20;;;;;;;0.87;0.73;;;17.10;99.90;;;;;;5005083;28;20438;-73
2022/05/25 01:59:46;;;;;;;0.90;0.80;;;16.80;99.90;;;;;;5005459;28;20441;-75
2022/05/25 02:04:58;;;;;;;1.50;1.20;;;16.40;99.90;;;;;;5005244;28;20186;-73
2022/05/25 02:08:10;;;;;;;1.97;0.90;;;16.30;99.90;;;;;;5005131;28;20437;-73
2022/05/25 02:11:01;;;;;;;1.67;0.77;;;16.40;99.90;;;;;;4927913;29;20890;-71
2022/05/25 02:13:38;;;;;;;1.00;0.77;;;16.30;99.90;;;;;;5004000;28;20420;-73
2022/05/25 02:16:08;;;;;;;1.00;0.80;;;16.40;99.90;;;;;;5003319;28;20879;-72
2022/05/25 02:18:49;;;;;;;1.33;0.80;;;16.50;99.90;;;;;;5004582;28;20432;-73
2022/05/25 02:21:33;;;;;;;2.10;1.00;;;16.60;99.90;;;;;;5004860;28;20403;-72
2022/05/25 02:24:19;;;;;;;1.20;0.90;;;16.50;99.90;;;;;;5004397;28;20446;-73
2022/05/25 02:26:53;;;;;;;1.00;0.80;;;16.40;99.90;;;;;;5004245;28;20432;-72
2022/05/25 02:29:25;;;;;;;1.57;1.10;;;16.30;99.90;;;;;;5003289;28;20448;-73
2022/05/25 02:32:04;;;;;;;3.53;0.90;;;16.40;99.90;;;;;;5019393;28;20509;-74
2022/05/25 02:34:31;;;;;;;1.73;1.10;;;16.40;99.90;;;;;;5004937;28;20454;-71
2022/05/25 02:36:58;;;;;;;1.97;0.90;;;16.40;99.90;;;;;;5004218;28;20509;-73
2022/05/25 02:39:24;;;;;;;1.13;1.00;;;16.30;99.90;;;;;;5002652;28;20429;-73
2022/05/25 02:41:53;;;;;;;1.53;1.30;;;16.20;99.90;;;;;;5004166;28;20413;-73
2022/05/25 02:44:19;;;;;;;1.00;0.80;;;16.20;99.90;;;;;;5004567;28;20424;-74
2022/05/25 02:46:45;;;;;;;1.90;0.90;;;16.20;99.90;;;;;;5004291;28;20951;-72
2022/05/25 02:49:12;;;;;;;1.67;0.90;;;16.20;99.90;;;;;;5004806;28;20917;-73
2022/05/25 02:51:38;;;;;;;1.23;0.90;;;16.40;99.90;;;;;;5008373;28;20844;-74
2022/05/25 02:54:05;;;;;;;1.30;0.80;;;16.30;99.90;;;;;;5008024;28;20421;-73
2022/05/25 02:56:30;;;;;;;1.40;0.93;;;16.30;99.90;;;;;;5008046;28;20963;-74
2022/05/25 02:58:56;;;;;;;1.23;0.90;;;16.30;99.90;;;;;;5008319;28;20422;-74
2022/05/25 03:01:22;;;;;;;1.43;0.80;;;16.30;99.90;;;;;;5008599;28;20222;-73
2022/05/25 03:03:48;;;;;;;1.90;1.00;;;16.20;99.90;;;;;;5008084;28;20421;-72
2022/05/25 03:06:14;;;;;;;1.00;0.90;;;16.10;99.90;;;;;;5007858;28;20462;-71
2022/05/25 03:08:41;;;;;;;1.63;0.83;;;16.00;99.90;;;;;;5007948;28;20606;-73
2022/05/25 03:11:08;;;;;;;2.60;1.10;;;16.00;99.90;;;;;;5008277;28;20213;-74
2022/05/25 03:13:35;;;;;;;1.47;0.83;;;16.00;99.90;;;;;;5008164;28;20428;-71
2022/05/25 03:16:01;;;;;;;1.23;0.80;;;16.00;99.90;;;;;;5006914;28;20510;-74
2022/05/25 03:18:27;;;;;;;4.03;0.90;;;16.00;99.90;;;;;;5006769;28;20445;-74
2022/05/25 03:20:52;;;;;;;3.07;1.00;;;16.10;99.90;;;;;;5008254;28;20428;-74
2022/05/25 03:23:18;;;;;;;2.20;0.93;;;16.20;99.90;;;;;;5006627;28;20175;-74
2022/05/25 03:25:45;;;;;;;1.47;0.93;;;16.00;99.90;;;;;;5007220;28;20199;-72
2022/05/25 03:28:11;;;;;;;1.97;1.13;;;16.00;99.90;;;;;;5007716;28;20211;-74
2022/05/25 03:30:37;;;;;;;0.80;0.70;;;16.00;99.90;;;;;;5007681;28;20437;-73
2022/05/25 03:33:03;;;;;;;1.00;0.90;;;16.00;99.90;;;;;;5008888;28;20191;-74
2022/05/25 03:35:28;;;;;;;2.10;0.97;;;16.10;99.90;;;;;;5008728;28;20514;-74
2022/05/25 03:37:54;;;;;;;2.03;0.80;;;16.00;99.90;;;;;;5008335;28;20217;-74
2022/05/25 03:40:20;;;;;;;2.60;0.90;;;16.00;99.90;;;;;;5008128;28;20250;-74
2022/05/25 03:42:47;;;;;;;0.90;0.80;;;15.90;99.90;;;;;;5008543;28;20558;-74
2022/05/25 03:45:14;;;;;;;1.73;0.80;;;15.80;99.90;;;;;;5008854;28;20420;-73
2022/05/25 03:47:41;;;;;;;1.00;0.77;;;15.90;99.90;;;;;;5008147;28;20940;-73
2022/05/25 03:50:07;;;;;;;1.73;1.10;;;16.00;99.90;;;;;;5008274;28;20447;-72
2022/05/25 03:52:34;;;;;;;1.83;0.83;;;16.00;99.90;;;;;;5006489;28;20418;-73
2022/05/25 03:54:59;;;;;;;2.63;1.13;;;16.10;99.90;;;;;;5006301;28;21003;-73
2022/05/25 03:57:25;;;;;;;2.30;0.90;;;16.10;99.90;;;;;;5007755;28;20521;-74
2022/05/25 03:59:51;;;;;;;3.43;0.93;;;16.10;99.90;;;;;;5008184;28;20969;-73
2022/05/25 04:02:17;;;;;;;3.43;0.97;;;16.00;99.90;;;;;;5006582;28;20180;-72
2022/05/25 04:04:43;;;;;;;1.30;1.00;;;16.10;99.90;;;;;;5008803;28;20240;-73
2022/05/25 04:07:09;;;;;;;1.40;0.90;;;16.10;99.90;;;;;;5007140;28;20458;-73
2022/05/25 04:09:34;;;;;;;1.20;1.10;;;16.10;99.90;;;;;;5007853;28;20197;-73
2022/05/25 04:12:00;;;;;;;4.07;1.03;;;16.10;99.90;;;;;;5006343;28;20658;-73
2022/05/25 04:14:26;;;;;;;2.40;1.13;;;16.10;99.90;;;;;;5006626;28;20210;-73
2022/05/25 04:16:51;;;;;;;2.33;0.80;;;16.10;99.90;;;;;;5006243;28;20319;-73
2022/05/25 04:19:17;;;;;;;1.77;0.97;;;16.20;99.90;;;;;;5006112;28;20266;-74
2022/05/25 04:21:42;;;;;;;1.33;1.00;;;16.10;99.90;;;;;;5032780;22;20232;-75
2022/05/25 04:24:09;;;;;;;0.93;0.80;;;16.00;99.90;;;;;;4987391;28;20192;-74
2022/05/25 04:26:35;;;;;;;1.10;1.00;;;16.20;99.90;;;;;;4985876;28;20580;-74
2022/05/25 04:29:00;;;;;;;2.07;1.30;;;16.20;99.90;;;;;;4985424;28;20468;-73
2022/05/25 04:31:26;;;;;;;1.20;0.97;;;16.20;99.90;;;;;;4986360;28;20855;-73
2022/05/25 04:33:53;;;;;;;1.70;1.03;;;16.20;99.90;;;;;;4988610;28;20173;-73
2022/05/25 04:36:19;;;;;;;4.67;1.27;;;16.10;99.90;;;;;;4986588;28;20451;-73
2022/05/25 04:38:44;;;;;;;3.10;0.90;;;16.10;99.90;;;;;;4986858;28;20434;-74
2022/05/25 04:41:10;;;;;;;2.10;0.90;;;16.10;99.90;;;;;;4986864;28;20872;-73
2022/05/25 04:43:35;;;;;;;1.73;1.00;;;16.20;99.90;;;;;;4986541;28;20265;-74
2022/05/25 04:46:07;;;;;;;1.10;0.90;;;16.20;99.90;;;;;;4986837;28;20177;-73
2022/05/25 04:48:33;;;;;;;1.93;1.20;;;16.30;99.90;;;;;;4986953;28;20176;-74
2022/05/25 04:50:59;;;;;;;1.20;0.90;;;16.20;99.90;;;;;;4986566;28;20452;-74
2022/05/25 04:53:25;;;;;;;1.70;1.13;;;16.40;99.90;;;;;;4991175;28;20269;-74
2022/05/25 04:58:41;;;;;;;2.40;1.00;;;16.40;99.90;;;;;;4986223;28;20558;-75
2022/05/25 05:01:09;;;;;;;1.07;0.90;;;16.50;99.90;;;;;;4985863;28;20558;-74
2022/05/25 05:03:36;;;;;;;0.90;0.77;;;16.50;99.90;;;;;;4992037;28;20419;-76
2022/05/25 05:06:03;;;;;;;1.50;0.83;;;16.40;99.90;;;;;;4986271;28;20425;-74
2022/05/25 05:08:29;;;;;;;1.17;0.90;;;16.40;99.90;;;;;;4985447;28;20419;-73
2022/05/25 05:10:55;;;;;;;1.27;0.90;;;16.50;99.90;;;;;;4985472;28;20435;-75
2022/05/25 05:13:21;;;;;;;2.20;1.57;;;16.60;99.90;;;;;;4983973;28;20428;-74
2022/05/25 05:15:51;;;;;;;1.20;1.03;;;16.50;99.90;;;;;;4985791;28;20958;-74
2022/05/25 05:18:19;;;;;;;1.23;1.00;;;16.40;99.90;;;;;;4986810;28;20467;-73
2022/05/25 05:20:44;;;;;;;1.00;0.90;;;16.50;99.90;;;;;;4985404;28;20486;-74
2022/05/25 05:23:11;;;;;;;1.80;0.90;;;16.40;99.90;;;;;;4985693;28;20451;-75
2022/05/25 05:25:37;;;;;;;1.57;0.90;;;16.30;99.90;;;;;;4985049;28;20248;-74
2022/05/25 05:28:09;;;;;;;1.97;1.10;;;16.30;99.90;;;;;;4985749;28;20421;-74
2022/05/25 05:30:39;;;;;;;1.60;1.00;;;16.40;99.90;;;;;;4985454;28;20757;-74
2022/05/25 05:33:05;;;;;;;5.57;0.90;;;16.40;99.90;;;;;;4986723;28;20548;-74
2022/05/25 05:35:32;;;;;;;1.47;1.13;;;16.50;99.90;;;;;;4984626;28;20544;-75
2022/05/25 05:37:58;;;;;;;1.10;0.70;;;16.60;99.90;;;;;;4985411;28;20194;-73
2022/05/25 05:40:25;;;;;;;1.97;1.00;;;16.70;99.90;;;;;;4984946;28;20559;-72
2022/05/25 05:42:52;;;;;;;2.03;0.97;;;16.80;99.90;;;;;;4985006;28;20418;-74
2022/05/25 05:45:24;;;;;;;3.50;1.40;;;16.80;99.90;;;;;;4984926;28;20430;-73
2022/05/25 05:47:56;;;;;;;1.30;0.90;;;16.50;99.90;;;;;;4983727;28;20417;-74
2022/05/25 05:50:24;;;;;;;2.93;1.20;;;16.60;99.90;;;;;;4984943;28;20417;-74
2022/05/25 05:52:51;;;;;;;1.03;0.70;;;16.50;99.90;;;;;;4984893;28;20964;-72
2022/05/25 05:55:17;;;;;;;1.30;0.90;;;16.50;99.90;;;;;;4984911;28;20464;-73
2022/05/25 05:57:43;;;;;;;1.07;0.90;;;16.70;99.90;;;;;;4985026;28;20424;-74
2022/05/25 06:00:11;;;;;;;1.80;0.93;;;16.80;99.90;;;;;;4984448;28;20425;-74
2022/05/25 06:02:37;;;;;;;1.17;0.90;;;16.90;99.90;;;;;;4983584;28;20466;-73
2022/05/25 06:05:03;;;;;;;1.20;1.10;;;16.80;99.90;;;;;;4984620;28;20422;-74
2022/05/25 06:07:29;;;;;;;1.20;1.00;;;16.80;99.90;;;;;;4984737;28;20180;-72
2022/05/25 06:09:56;;;;;;;2.20;1.30;;;17.00;99.90;;;;;;4985789;28;20806;-71
2022/05/25 06:12:22;;;;;;;1.40;0.83;;;17.30;99.90;;;;;;4986131;28;20204;-72
2022/05/25 06:14:48;;;;;;;2.27;1.20;;;17.40;99.90;;;;;;4986263;28;20451;-74
2022/05/25 06:19:58;;;;;;;1.47;1.03;;;17.30;99.90;;;;;;4986432;28;20805;-71
2022/05/25 06:22:23;;;;;;;1.80;1.23;;;17.60;99.90;;;;;;4984163;28;20485;-74
2022/05/25 06:24:51;;;;;;;6.17;1.10;;;17.90;99.90;;;;;;4984138;28;20815;-74
2022/05/25 06:27:19;;;;;;;7.60;1.30;;;17.80;99.90;;;;;;4985277;28;20583;-74
2022/05/25 06:29:49;;;;;;;2.10;1.20;;;17.60;99.90;;;;;;5000665;28;20431;-73
2022/05/25 06:32:18;;;;;;;2.90;1.10;;;17.60;99.90;;;;;;4985872;28;20469;-73
2022/05/25 06:34:47;;;;;;;2.80;1.17;;;17.50;99.90;;;;;;4984699;28;20459;-72
2022/05/25 06:37:24;;;;;;;2.47;1.30;;;17.50;99.90;;;;;;4984678;28;20517;-73
2022/05/25 06:39:50;;;;;;;2.00;0.90;;;17.70;99.90;;;;;;4984023;28;20426;-72
2022/05/25 06:42:16;;;;;;;1.87;1.30;;;17.80;99.90;;;;;;4983700;28;20526;-74
2022/05/25 06:44:44;;;;;;;7.03;1.20;;;18.00;99.90;;;;;;4984687;28;20573;-73
2022/05/25 06:47:14;;;;;;;3.03;1.30;;;18.00;99.90;;;;;;4985375;28;20211;-73
2022/05/25 06:49:39;;;;;;;1.23;1.13;;;18.20;99.90;;;;;;4985142;28;20423;-73
2022/05/25 06:52:09;;;;;;;2.20;1.20;;;18.30;99.90;;;;;;4984821;28;20436;-73
2022/05/25 06:54:35;;;;;;;3.70;1.50;;;18.40;99.90;;;;;;4986041;28;20619;-74
2022/05/25 06:57:00;;;;;;;2.30;1.27;;;18.50;99.90;;;;;;4985916;28;20416;-73
2022/05/25 06:59:26;;;;;;;4.03;1.40;;;18.60;99.90;;;;;;4985358;28;20784;-75
2022/05/25 07:01:52;;;;;;;1.40;1.10;;;18.70;99.90;;;;;;4985472;28;20234;-76
2022/05/25 07:04:18;;;;;;;2.40;1.10;;;18.50;99.90;;;;;;4985057;28;20478;-77
2022/05/25 07:06:44;;;;;;;1.13;0.93;;;18.10;99.90;;;;;;4984156;28;20235;-73
2022/05/25 07:09:10;;;;;;;1.77;1.20;;;17.50;99.90;;;;;;4984514;28;20184;-74
2022/05/25 07:11:36;;;;;;;3.10;1.30;;;17.40;99.90;;;;;;4984334;28;20494;-74
2022/05/25 07:14:02;;;;;;;1.93;1.20;;;17.50;99.90;;;;;;4984485;28;20416;-73
2022/05/25 07:16:28;;;;;;;1.93;1.03;;;17.50;99.90;;;;;;4984560;28;20412;-74
2022/05/25 07:18:54;;;;;;;2.77;1.10;;;17.70;99.90;;;;;;4984477;28;20760;-76
2022/05/25 07:21:30;;;;;;;2.90;1.27;;;17.70;99.90;;;;;;4984828;28;20220;-75
2022/05/25 07:23:58;;;;;;;5.17;1.20;;;17.60;99.90;;;;;;4984699;28;21071;-74
2022/05/25 07:26:25;;;;;;;1.30;1.10;;;17.30;99.90;;;;;;4985351;28;21154;-76
2022/05/25 07:28:51;;;;;;;2.93;2.03;;;17.40;99.90;;;;;;4986346;28;20772;-73
2022/05/25 07:31:24;;;;;;;3.60;1.30;;;17.60;99.90;;;;;;4983777;28;20441;-72
2022/05/25 07:33:57;;;;;;;1.17;0.90;;;17.80;99.90;;;;;;4984527;28;20419;-72
2022/05/25 07:36:24;;;;;;;2.70;1.67;;;17.90;99.90;;;;;;5000699;28;20434;-74
2022/05/25 07:38:52;;;;;;;2.50;1.43;;;18.00;99.90;;;;;;4987947;28;20791;-71
2022/05/25 07:41:19;;;;;;;1.77;1.23;;;17.90;99.90;;;;;;4987265;28;20432;-73
2022/05/25 07:43:47;;;;;;;1.33;1.23;;;18.00;99.80;;;;;;4987537;28;20506;-72
2022/05/25 07:46:12;;;;;;;2.47;1.10;;;18.20;99.40;;;;;;4987576;28;20408;-72
2022/05/25 07:48:38;;;;;;;2.00;1.17;;;18.40;99.40;;;;;;4987066;28;20876;-74
2022/05/25 07:51:05;;;;;;;2.00;1.20;;;18.60;99.20;;;;;;4987254;28;20708;-75
2022/05/25 07:56:16;;;;;;;2.90;0.97;;;18.60;99.50;;;;;;4987294;28;20917;-75
2022/05/25 07:58:41;;;;;;;2.33;1.37;;;18.80;99.10;;;;;;4987573;28;20462;-72
2022/05/25 08:01:16;;;;;;;1.17;1.07;;;19.30;99.20;;;;;;4987118;28;20475;-73
2022/05/25 08:06:32;;;;;;;2.67;1.20;;;19.80;98.30;;;;;;4987076;28;20443;-72
2022/05/25 08:08:57;;;;;;;2.47;1.10;;;19.90;97.80;;;;;;4987238;28;20454;-74
2022/05/25 08:11:24;;;;;;;1.50;1.37;;;19.80;97.50;;;;;;4987188;28;20451;-72
2022/05/25 08:13:55;;;;;;;4.03;1.37;;;19.90;97.50;;;;;;4988475;28;20195;-72
2022/05/25 08:16:21;;;;;;;3.83;1.00;;;19.80;97.40;;;;;;4987360;28;20940;-73
2022/05/25 08:18:46;;;;;;;1.50;1.30;;;20.10;96.30;;;;;;4987277;28;20423;-74
2022/05/25 08:21:12;;;;;;;1.73;1.00;;;19.90;96.00;;;;;;4986790;28;20342;-75
2022/05/25 08:23:37;;;;;;;1.17;1.00;;;19.90;96.50;;;;;;4987042;28;20231;-75
2022/05/25 08:26:03;;;;;;;1.53;1.20;;;19.80;96.20;;;;;;4985359;28;20275;-73
2022/05/25 08:28:29;;;;;;;2.83;1.33;;;20.00;96.30;;;;;;4986688;28;20605;-73
2022/05/25 08:30:54;;;;;;;2.07;1.30;;;20.00;96.10;;;;;;4986604;28;20209;-74
2022/05/25 08:33:21;;;;;;;1.63;1.40;;;20.20;95.70;;;;;;4985898;28;20176;-74
2022/05/25 08:35:48;;;;;;;5.43;1.63;;;20.40;95.60;;;;;;4986695;28;20456;-73
2022/05/25 08:38:14;;;;;;;3.87;1.63;;;20.30;95.90;;;;;;4987225;28;20455;-73
2022/05/25 08:40:40;;;;;;;2.43;1.30;;;19.80;96.10;;;;;;4986199;28;20897;-71
2022/05/25 08:43:18;;;;;;;1.20;0.90;;;20.00;95.60;;;;;;4986834;28;20188;-73
2022/05/25 08:46:01;;;;;;;2.00;1.30;;;19.90;95.80;;;;;;4987057;28;20430;-73
2022/05/25 08:48:29;;;;;;;1.83;1.00;;;19.90;96.80;;;;;;4984108;28;20494;-74
2022/05/25 08:51:08;;;;;;;1.83;1.10;;;20.20;95.60;;;;;;4985858;28;20436;-74
2022/05/25 08:53:37;;;;;;;1.60;1.03;;;20.00;95.10;;;;;;4986035;28;20425;-72
2022/05/25 08:56:20;;;;;;;1.70;0.90;;;19.90;95.40;;;;;;4984311;28;20502;-74
2022/05/25 08:58:51;;;;;;;3.40;1.40;;;20.00;95.10;;;;;;4985911;28;20478;-75
2022/05/25 09:01:30;;;;;;;2.60;1.17;;;19.80;95.30;;;;;;4986769;28;20444;-72
2022/05/25 09:04:19;;;;;;;1.13;1.00;;;20.10;95.30;;;;;;4986255;28;20408;-71
2022/05/25 09:06:55;;;;;;;2.10;1.03;;;20.00;95.40;;;;;;4987227;28;20407;-72
2022/05/25 09:09:38;;;;;;;4.07;1.10;;;19.80;95.30;;;;;;4986467;28;20458;-70
2022/05/25 09:12:34;;;;;;;2.70;1.10;;;19.60;95.70;;;;;;4986159;28;20442;-72
2022/05/25 09:15:11;;;;;;;3.10;1.30;;;19.60;96.10;;;;;;4985550;28;20469;-75
2022/05/25 09:17:46;;;;;;;1.47;1.10;;;19.60;95.70;;;;;;4986316;28;20408;-72
2022/05/25 09:20:17;;;;;;;2.40;1.10;;;19.80;95.30;;;;;;4986043;28;20943;-72
2022/05/25 09:22:43;;;;;;;2.13;1.10;;;19.70;94.50;;;;;;4985334;28;20451;-70
2022/05/25 09:25:11;;;;;;;4.10;1.07;;;19.80;95.60;;;;;;4986017;28;20430;-72
2022/05/25 09:27:50;;;;;;;2.50;1.00;;;20.00;94.10;;;;;;4984681;28;20430;-73
2022/05/25 09:30:16;;;;;;;1.73;0.90;;;20.30;93.60;;;;;;4986487;28;20427;-74
2022/05/25 09:32:50;;;;;;;2.20;1.00;;;20.20;93.00;;;;;;4985271;28;20439;-74
2022/05/25 09:35:34;;;;;;;2.57;1.13;;;20.20;93.90;;;;;;5000515;28;21067;-74
2022/05/25 09:38:05;;;;;;;2.67;0.87;;;20.50;93.40;;;;;;4984307;28;20589;-74
2022/05/25 09:40:32;;;;;;;1.30;1.10;;;20.50;93.60;;;;;;4985174;28;20415;-76
2022/05/25 09:43:01;;;;;;;1.00;0.80;;;20.40;92.80;;;;;;4985086;28;20416;-74
2022/05/25 09:45:57;;;;;;;1.70;0.93;;;20.30;92.80;;;;;;4985314;28;20490;-75
2022/05/25 09:48:26;;;;;;;5.80;2.03;;;20.50;93.00;;;;;;4984518;28;20765;-76
2022/05/25 09:50:55;;;;;;;3.80;0.93;;;20.60;93.20;;;;;;4985492;28;20447;-75
2022/05/25 09:53:30;;;;;;;4.33;1.33;;;21.10;93.40;;;;;;4988027;28;20481;-76
2022/05/25 09:56:21;;;;;;;2.20;1.33;;;21.20;92.10;;;;;;4989724;28;20997;-75
2022/05/25 09:58:57;;;;;;;2.50;1.10;;;21.20;91.90;;;;;;4986937;28;21028;-75
2022/05/25 10:01:28;;;;;;;1.63;1.00;;;21.40;91.30;;;;;;4989129;28;20431;-74
2022/05/25 10:03:54;;;;;;;1.63;1.03;;;21.60;91.30;;;;;;4994043;28;20416;-75
2022/05/25 10:06:29;;;;;;;1.80;1.00;;;21.20;89.90;;;;;;5002721;28;20419;-74
2022/05/25 10:09:23;;;;;;;2.03;1.10;;;21.20;90.60;;;;;;5001713;28;21127;-74
2022/05/25 10:11:54;;;;;;;1.80;1.00;;;20.80;91.60;;;;;;4997185;28;20462;-74
2022/05/25 10:14:33;;;;;;;1.90;0.80;;;20.50;91.10;;;;;;5001665;28;20522;-75
2022/05/25 10:17:10;;;;;;;1.50;1.13;;;20.30;91.30;;;;;;4999411;28;20431;-74
2022/05/25 10:19:50;;;;;;;3.57;1.20;;;20.80;92.00;;;;;;4979558;28;20458;-76
2022/05/25 10:22:40;;;;;;;1.50;1.03;;;21.00;91.00;;;;;;5013093;23;21035;-74
2022/05/25 10:25:29;;;;;;;2.80;1.00;;;20.90;90.20;;;;;;5004608;28;20909;-73
2022/05/25 10:27:57;;;;;;;1.87;1.07;;;20.70;91.20;;;;;;5003787;28;20931;-73
2022/05/25 10:38:47;;;;;;;1.47;0.80;;;22.10;87.30;;;;;;5003890;28;20793;-73
2022/05/25 10:44:07;;;;;;;2.90;1.10;;;22.70;88.40;;;;;;5003820;28;20251;-73
2022/05/25 10:46:33;;;;;;;1.20;0.80;;;22.20;88.30;;;;;;5004060;28;20848;-74
2022/05/25 10:49:09;;;;;;;1.97;1.00;;;21.40;87.80;;;;;;5003478;28;20448;-76
2022/05/25 10:51:45;;;;;;;3.40;1.00;;;21.20;88.30;;;;;;5004076;28;21066;-72
2022/05/25 10:57:22;;;;;;;1.00;0.80;;;20.60;88.00;;;;;;5004088;28;20456;-73
2022/05/25 10:59:55;;;;;;;1.53;0.87;;;20.40;88.20;;;;;;5004070;28;20418;-73
2022/05/25 11:02:58;;;;;;;2.97;0.87;;;20.90;88.90;;;;;;5003444;28;20529;-74
2022/05/25 11:05:54;;;;;;;3.00;0.93;;;21.40;85.60;;;;;;5003052;28;20947;-74
2022/05/25 11:08:53;;;;;;;4.43;1.17;;;21.30;86.30;;;;;;5003350;28;20431;-74
2022/05/25 11:11:47;;;;;;;1.40;1.07;;;21.30;86.10;;;;;;5004069;28;20506;-75
2022/05/25 11:14:15;;;;;;;3.50;1.10;;;21.70;86.40;;;;;;4972251;28;20529;-78
2022/05/25 11:17:09;;;;;;;1.07;0.80;;;22.30;86.70;;;;;;5007647;28;20437;-76
2022/05/25 11:19:59;;;;;;;2.40;1.00;;;22.90;82.80;;;;;;5007770;28;20446;-72
2022/05/25 11:22:44;;;;;;;2.00;0.90;;;22.40;82.70;;;;;;5006750;28;20490;-74
2022/05/25 11:25:30;;;;;;;2.60;0.87;;;23.00;81.20;;;;;;5007704;28;20509;-75
2022/05/25 11:28:08;;;;;;;1.93;0.80;;;24.00;80.70;;;;;;5006998;28;20425;-76
2022/05/25 11:30:37;;;;;;;1.60;0.80;;;24.00;78.80;;;;;;5007518;28;20588;-73
2022/05/25 11:33:17;;;;;;;1.43;1.00;;;24.00;78.70;;;;;;5006787;28;20438;-74
2022/05/25 11:35:53;;;;;;;1.43;1.00;;;22.80;79.70;;;;;;5006669;28;20458;-73
2022/05/25 11:38:56;;;;;;;3.80;1.20;;;22.60;81.10;;;;;;5007138;28;20432;-76
2022/05/25 11:41:53;;;;;;;2.40;1.10;;;22.50;81.70;;;;;;5007020;28;20521;-74
2022/05/25 11:44:29;;;;;;;3.63;2.07;;;22.20;81.20;;;;;;5007637;28;20411;-75
2022/05/25 11:47:14;;;;;;;1.00;0.80;;;22.40;81.20;;;;;;5006971;28;20517;-73
2022/05/25 11:50:13;;;;;;;1.60;0.77;;;23.50;79.50;;;;;;5007526;28;20425;-76
2022/05/25 11:52:53;;;;;;;1.40;1.00;;;24.20;77.80;;;;;;5007447;28;21611;-75
2022/05/25 11:55:48;;;;;;;1.60;0.80;;;24.60;75.20;;;;;;5006938;28;20450;-74
2022/05/25 11:58:26;;;;;;;1.80;0.77;;;26.40;71.20;;;;;;4999408;28;20434;-73
2022/05/25 12:01:09;;;;;;;1.30;0.90;;;28.20;67.30;;;;;;5007186;28;20415;-73
2022/05/25 12:03:56;;;;;;;2.07;1.00;;;30.60;57.60;;;;;;5006271;28;20912;-74
2022/05/25 12:06:50;;;;;;;1.20;0.60;;;30.70;55.90;;;;;;5006223;28;20421;-72
2022/05/25 12:09:56;;;;;;;2.03;0.90;;;29.00;56.60;;;;;;5005391;28;20887;-73
2022/05/25 12:12:44;;;;;;;1.80;1.00;;;27.20;60.00;;;;;;4950577;28;20571;-76
2022/05/25 12:15:21;;;;;;;1.90;0.67;;;26.40;61.70;;;;;;5005340;28;20465;-74
2022/05/25 12:18:05;;;;;;;3.00;1.10;;;27.40;59.70;;;;;;5007026;28;20410;-75
2022/05/25 12:20:52;;;;;;;1.03;0.70;;;27.80;57.80;;;;;;5006228;28;20457;-73
2022/05/25 12:23:22;;;;;;;1.40;0.83;;;26.60;59.30;;;;;;5004677;28;20545;-74
2022/05/25 12:25:59;;;;;;;0.90;0.70;;;26.60;61.30;;;;;;5006733;28;20760;-74
2022/05/25 12:28:31;;;;;;;3.40;1.00;;;27.90;58.40;;;;;;5006616;28;20453;-74
2022/05/25 12:31:01;;;;;;;2.20;0.93;;;28.20;57.60;;;;;;5005447;28;21396;-78
2022/05/25 12:33:28;;;;;;;1.67;1.07;;;29.00;56.70;;;;;;5006423;28;20533;-75
2022/05/25 12:35:54;;;;;;;1.40;0.83;;;30.90;54.10;;;;;;5006174;28;20458;-72
2022/05/25 12:38:23;;;;;;;0.93;0.70;;;31.90;50.30;;;;;;5005634;28;20434;-72
2022/05/25 12:40:51;;;;;;;2.47;0.80;;;32.50;51.00;;;;;;5006057;28;20642;-74
2022/05/25 12:43:36;;;;;;;1.10;0.60;;;32.00;48.10;;;;;;5005791;28;20457;-73
2022/05/25 12:49:09;;;;;;;2.60;1.00;;;33.30;46.90;;;;;;4942087;29;20409;-71
2022/05/25 12:51:40;;;;;;;1.47;0.70;;;33.50;45.20;;;;;;4925786;29;20482;-75
2022/05/25 12:54:31;;;;;;;1.40;0.73;;;33.20;45.90;;;;;;4967450;28;20430;-74
2022/05/25 12:57:00;;;;;;;1.40;0.77;;;34.10;45.50;;;;;;5006010;28;20415;-75
2022/05/25 12:59:39;;;;;;;0.80;0.60;;;33.20;45.20;;;;;;5006090;28;20415;-74
2022/05/25 13:02:22;;;;;;;2.50;0.80;;;32.70;43.90;;;;;;5005504;28;20450;-73
2022/05/25 13:04:57;;;;;;;2.20;1.03;;;31.00;46.60;;;;;;5006141;28;20407;-73
2022/05/25 13:07:41;;;;;;;1.00;0.80;;;30.20;49.20;;;;;;5005236;28;20946;-73
2022/05/25 13:10:17;;;;;;;1.40;0.90;;;29.10;50.10;;;;;;5005658;28;20761;-76
2022/05/25 13:12:46;;;;;;;1.73;0.90;;;27.50;51.80;;;;;;5004214;28;20440;-75
2022/05/25 13:15:15;;;;;;;3.00;1.10;;;26.20;55.40;;;;;;5005284;28;20588;-74
2022/05/25 13:17:43;;;;;;;1.10;0.73;;;25.70;55.40;;;;;;5004986;28;20450;-73
2022/05/25 13:20:46;;;;;;;1.10;0.70;;;25.50;55.90;;;;;;5005821;28;20960;-72
2022/05/25 13:23:51;;;;;;;1.83;0.80;;;25.90;55.40;;;;;;5004808;28;20512;-76
2022/05/25 13:26:24;;;;;;;2.33;1.10;;;28.20;51.80;;;;;;5004857;28;20945;-71
2022/05/25 13:29:08;;;;;;;1.83;1.00;;;29.50;50.90;;;;;;5004839;28;20890;-73
2022/05/25 13:31:58;;;;;;;2.40;0.80;;;29.70;50.40;;;;;;5004878;28;20434;-71
2022/05/25 13:34:24;;;;;;;1.50;0.83;;;29.20;49.80;;;;;;5004816;28;20482;-72
2022/05/25 13:36:55;;;;;;;1.83;0.87;;;29.00;49.90;;;;;;5005136;28;20553;-72
2022/05/25 13:39:24;;;;;;;1.30;1.03;;;28.90;52.00;;;;;;5005187;28;20199;-72
2022/05/25 13:42:08;;;;;;;4.50;0.80;;;28.50;49.00;;;;;;5004779;28;20430;-71
2022/05/25 13:44:55;;;;;;;1.80;1.00;;;27.90;50.70;;;;;;5004944;28;20538;-73
2022/05/25 13:47:24;;;;;;;1.40;0.80;;;28.00;50.90;;;;;;5003254;28;20502;-72
2022/05/25 13:49:52;;;;;;;2.10;1.10;;;28.40;51.90;;;;;;5004871;28;20473;-72